sensor_id;sensor_type;location;lat;lon;timestamp;pressure;altitude;pressure_sealevel;temperature;humidity
17311;BME280;8773;43.300;0.394;2023-07-02T00:01:56;100084.44;;;20.36;68.80
17311;BME280;8773;43.300;0.394;2023-07-02T00:04:25;100076.53;;;20.34;68.76
17311;BME280;8773;43.300;0.394;2023-07-02T00:06:53;100079.84;;;20.29;69.08
17311;BME280;8773;43.300;0.394;2023-07-02T00:09:20;100078.19;;;20.28;68.85
17311;BME280;8773;43.300;0.394;2023-07-02T00:11:47;100069.00;;;20.29;69.07
17311;BME280;8773;43.300;0.394;2023-07-02T00:14:15;100070.88;;;20.29;69.18
17311;BME280;8773;43.300;0.394;2023-07-02T00:16:44;100067.34;;;20.22;69.04
17311;BME280;8773;43.300;0.394;2023-07-02T00:19:11;100066.94;;;20.25;68.92
17311;BME280;8773;43.300;0.394;2023-07-02T00:21:40;100059.88;;;20.17;69.44
17311;BME280;8773;43.300;0.394;2023-07-02T00:24:09;100065.69;;;20.08;69.81
17311;BME280;8773;43.300;0.394;2023-07-02T00:26:37;100059.84;;;19.97;70.19
17311;BME280;8773;43.300;0.394;2023-07-02T00:29:05;100061.94;;;19.89;70.86
17311;BME280;8773;43.300;0.394;2023-07-02T00:31:32;100051.09;;;19.95;70.55
17311;BME280;8773;43.300;0.394;2023-07-02T00:34:00;100050.66;;;19.92;70.82
17311;BME280;8773;43.300;0.394;2023-07-02T00:36:28;100051.28;;;19.81;71.02
17311;BME280;8773;43.300;0.394;2023-07-02T00:38:58;100049.00;;;19.78;71.15
17311;BME280;8773;43.300;0.394;2023-07-02T00:41:25;100050.28;;;19.68;71.71
17311;BME280;8773;43.300;0.394;2023-07-02T00:43:53;100041.91;;;19.77;71.45
17311;BME280;8773;43.300;0.394;2023-07-02T00:46:22;100040.28;;;19.76;71.64
17311;BME280;8773;43.300;0.394;2023-07-02T00:48:51;100037.31;;;19.84;71.60
17311;BME280;8773;43.300;0.394;2023-07-02T00:51:19;100031.50;;;19.87;71.38
17311;BME280;8773;43.300;0.394;2023-07-02T00:53:49;100039.00;;;19.85;71.47
17311;BME280;8773;43.300;0.394;2023-07-02T00:56:18;100031.50;;;19.87;71.60
17311;BME280;8773;43.300;0.394;2023-07-02T00:58:47;100030.03;;;19.78;71.93
17311;BME280;8773;43.300;0.394;2023-07-02T01:01:16;100032.94;;;19.83;72.04
17311;BME280;8773;43.300;0.394;2023-07-02T01:03:50;100034.81;;;19.95;71.84
17311;BME280;8773;43.300;0.394;2023-07-02T01:06:18;100022.31;;;20.01;71.74
17311;BME280;8773;43.300;0.394;2023-07-02T01:08:45;100025.03;;;20.01;71.45
17311;BME280;8773;43.300;0.394;2023-07-02T01:11:12;100023.56;;;20.05;70.99
17311;BME280;8773;43.300;0.394;2023-07-02T01:13:41;100026.28;;;20.05;71.67
17311;BME280;8773;43.300;0.394;2023-07-02T01:16:09;100029.84;;;20.12;71.28
17311;BME280;8773;43.300;0.394;2023-07-02T01:18:37;100025.25;;;20.13;70.95
17311;BME280;8773;43.300;0.394;2023-07-02T01:21:06;100023.38;;;20.13;71.10
17311;BME280;8773;43.300;0.394;2023-07-02T01:23:34;100025.25;;;20.19;70.98
17311;BME280;8773;43.300;0.394;2023-07-02T01:26:01;100030.06;;;20.17;71.03
17311;BME280;8773;43.300;0.394;2023-07-02T01:28:35;100029.41;;;20.09;71.40
17311;BME280;8773;43.300;0.394;2023-07-02T01:31:03;100035.88;;;20.01;71.31
17311;BME280;8773;43.300;0.394;2023-07-02T01:33:31;100032.31;;;19.94;71.70
17311;BME280;8773;43.300;0.394;2023-07-02T01:35:58;100023.56;;;19.98;71.96
17311;BME280;8773;43.300;0.394;2023-07-02T01:38:27;100025.84;;;20.08;71.43
17311;BME280;8773;43.300;0.394;2023-07-02T01:40:55;100026.94;;;20.14;71.35
17311;BME280;8773;43.300;0.394;2023-07-02T01:43:22;100022.72;;;20.05;71.30
17311;BME280;8773;43.300;0.394;2023-07-02T01:45:49;100016.06;;;19.94;71.76
17311;BME280;8773;43.300;0.394;2023-07-02T01:48:17;100013.78;;;19.91;71.71
17311;BME280;8773;43.300;0.394;2023-07-02T01:50:44;100014.81;;;19.96;71.49
17311;BME280;8773;43.300;0.394;2023-07-02T01:53:12;100017.94;;;20.00;71.42
17311;BME280;8773;43.300;0.394;2023-07-02T01:55:41;100016.69;;;20.02;71.49
17311;BME280;8773;43.300;0.394;2023-07-02T01:58:08;100017.09;;;20.06;71.01
17311;BME280;8773;43.300;0.394;2023-07-02T02:00:35;100015.63;;;20.10;70.97
17311;BME280;8773;43.300;0.394;2023-07-02T02:03:04;100013.38;;;20.14;70.89
17311;BME280;8773;43.300;0.394;2023-07-02T02:05:32;100012.75;;;20.18;70.37
17311;BME280;8773;43.300;0.394;2023-07-02T02:07:59;100012.50;;;20.20;70.28
17311;BME280;8773;43.300;0.394;2023-07-02T02:10:26;100011.06;;;20.17;70.33
17311;BME280;8773;43.300;0.394;2023-07-02T02:12:55;100012.09;;;20.03;70.43
17311;BME280;8773;43.300;0.394;2023-07-02T02:15:22;100007.72;;;20.02;70.78
17311;BME280;8773;43.300;0.394;2023-07-02T02:17:50;100003.53;;;20.06;70.56
17311;BME280;8773;43.300;0.394;2023-07-02T02:20:18;100000.84;;;20.06;70.63
17311;BME280;8773;43.300;0.394;2023-07-02T02:22:45;99999.78;;;20.07;70.48
17311;BME280;8773;43.300;0.394;2023-07-02T02:25:12;99994.38;;;20.07;70.88
17311;BME280;8773;43.300;0.394;2023-07-02T02:27:40;99997.31;;;20.12;70.33
17311;BME280;8773;43.300;0.394;2023-07-02T02:30:09;99994.19;;;20.15;70.46
17311;BME280;8773;43.300;0.394;2023-07-02T02:32:36;99996.22;;;20.20;70.27
17311;BME280;8773;43.300;0.394;2023-07-02T02:35:05;99989.34;;;20.24;70.20
17311;BME280;8773;43.300;0.394;2023-07-02T02:37:33;99995.59;;;20.24;70.33
17311;BME280;8773;43.300;0.394;2023-07-02T02:40:01;99991.44;;;20.22;70.61
17311;BME280;8773;43.300;0.394;2023-07-02T02:42:28;99990.63;;;20.15;70.55
17311;BME280;8773;43.300;0.394;2023-07-02T02:44:56;99993.13;;;20.10;70.78
17311;BME280;8773;43.300;0.394;2023-07-02T02:47:25;99994.59;;;20.12;70.93
17311;BME280;8773;43.300;0.394;2023-07-02T02:49:52;99991.47;;;20.15;70.97
17311;BME280;8773;43.300;0.394;2023-07-02T02:52:19;99989.56;;;20.22;70.46
17311;BME280;8773;43.300;0.394;2023-07-02T02:54:47;99988.91;;;20.27;70.46
17311;BME280;8773;43.300;0.394;2023-07-02T02:57:14;99990.19;;;20.24;70.27
17311;BME280;8773;43.300;0.394;2023-07-02T02:59:42;99988.09;;;20.26;70.39
17311;BME280;8773;43.300;0.394;2023-07-02T03:02:10;99986.84;;;20.22;70.63
17311;BME280;8773;43.300;0.394;2023-07-02T03:04:39;99985.16;;;20.21;70.88
17311;BME280;8773;43.300;0.394;2023-07-02T03:07:06;99982.47;;;20.21;70.64
17311;BME280;8773;43.300;0.394;2023-07-02T03:09:34;99984.75;;;20.24;70.45
17311;BME280;8773;43.300;0.394;2023-07-02T03:12:02;99990.78;;;20.26;70.52
17311;BME280;8773;43.300;0.394;2023-07-02T03:14:30;99984.59;;;20.13;71.03
17311;BME280;8773;43.300;0.394;2023-07-02T03:16:57;99978.75;;;19.96;71.45
17311;BME280;8773;43.300;0.394;2023-07-02T03:19:24;99978.94;;;20.01;71.28
17311;BME280;8773;43.300;0.394;2023-07-02T03:21:53;99986.06;;;20.15;71.13
17311;BME280;8773;43.300;0.394;2023-07-02T03:24:21;99973.13;;;20.17;70.70
17311;BME280;8773;43.300;0.394;2023-07-02T03:26:48;99981.63;;;20.21;70.58
17311;BME280;8773;43.300;0.394;2023-07-02T03:29:16;99982.25;;;20.23;70.74
17311;BME280;8773;43.300;0.394;2023-07-02T03:31:43;99980.41;;;20.10;71.19
17311;BME280;8773;43.300;0.394;2023-07-02T03:34:11;99980.19;;;20.05;70.83
17311;BME280;8773;43.300;0.394;2023-07-02T03:36:38;99970.81;;;20.01;71.31
17311;BME280;8773;43.300;0.394;2023-07-02T03:39:07;99969.78;;;19.89;71.39
17311;BME280;8773;43.300;0.394;2023-07-02T03:41:37;99973.34;;;19.83;71.81
17311;BME280;8773;43.300;0.394;2023-07-02T03:44:04;99972.91;;;19.79;71.92
17311;BME280;8773;43.300;0.394;2023-07-02T03:46:31;99974.38;;;19.88;71.85
17311;BME280;8773;43.300;0.394;2023-07-02T03:48:59;99977.91;;;19.95;71.89
17311;BME280;8773;43.300;0.394;2023-07-02T03:51:26;99981.03;;;19.99;71.52
17311;BME280;8773;43.300;0.394;2023-07-02T03:53:54;99979.38;;;19.98;71.76
17311;BME280;8773;43.300;0.394;2023-07-02T03:56:23;99981.88;;;20.06;71.30
17311;BME280;8773;43.300;0.394;2023-07-02T03:58:50;99979.38;;;19.98;71.83
17311;BME280;8773;43.300;0.394;2023-07-02T04:01:17;99977.72;;;19.84;71.96
17311;BME280;8773;43.300;0.394;2023-07-02T04:03:47;99985.00;;;19.90;72.13
17311;BME280;8773;43.300;0.394;2023-07-02T04:06:15;99978.53;;;19.91;72.08
17311;BME280;8773;43.300;0.394;2023-07-02T04:08:43;99980.41;;;19.90;71.82
17311;BME280;8773;43.300;0.394;2023-07-02T04:11:11;99979.56;;;20.03;71.57
17311;BME280;8773;43.300;0.394;2023-07-02T04:13:40;99988.75;;;20.02;71.63
17311;BME280;8773;43.300;0.394;2023-07-02T04:16:08;99980.41;;;19.90;71.85
17311;BME280;8773;43.300;0.394;2023-07-02T04:18:35;99975.66;;;19.73;72.76
17311;BME280;8773;43.300;0.394;2023-07-02T04:21:03;99973.75;;;19.80;72.51
17311;BME280;8773;43.300;0.394;2023-07-02T04:23:30;99966.47;;;19.80;72.72
17311;BME280;8773;43.300;0.394;2023-07-02T04:25:58;99977.91;;;19.89;72.28
17311;BME280;8773;43.300;0.394;2023-07-02T04:28:47;99969.56;;;20.04;71.77
17311;BME280;8773;43.300;0.394;2023-07-02T04:31:14;99989.78;;;20.01;71.75
17311;BME280;8773;43.300;0.394;2023-07-02T04:33:42;99983.31;;;20.02;71.66
17311;BME280;8773;43.300;0.394;2023-07-02T04:36:09;99981.66;;;20.01;71.83
17311;BME280;8773;43.300;0.394;2023-07-02T04:38:36;99981.88;;;20.06;71.55
17311;BME280;8773;43.300;0.394;2023-07-02T04:41:04;99981.66;;;20.14;71.79
17311;BME280;8773;43.300;0.394;2023-07-02T04:43:31;99983.09;;;20.23;71.39
17311;BME280;8773;43.300;0.394;2023-07-02T04:46:00;99985.34;;;20.33;71.06
17311;BME280;8773;43.300;0.394;2023-07-02T04:48:28;99974.28;;;20.34;70.81
17311;BME280;8773;43.300;0.394;2023-07-02T04:50:56;99978.44;;;20.44;70.85
17311;BME280;8773;43.300;0.394;2023-07-02T04:53:23;99982.81;;;20.45;70.65
17311;BME280;8773;43.300;0.394;2023-07-02T04:55:50;99983.00;;;20.50;70.45
17311;BME280;8773;43.300;0.394;2023-07-02T04:58:18;99984.25;;;20.54;70.24
17311;BME280;8773;43.300;0.394;2023-07-02T05:00:45;99993.84;;;20.56;69.90
17311;BME280;8773;43.300;0.394;2023-07-02T05:03:14;99988.00;;;20.59;69.74
17311;BME280;8773;43.300;0.394;2023-07-02T05:05:42;99986.72;;;20.62;69.94
17311;BME280;8773;43.300;0.394;2023-07-02T05:08:10;99985.50;;;20.58;70.01
17311;BME280;8773;43.300;0.394;2023-07-02T05:10:37;99995.47;;;20.64;69.84
17311;BME280;8773;43.300;0.394;2023-07-02T05:13:05;99996.69;;;20.68;69.75
17311;BME280;8773;43.300;0.394;2023-07-02T05:15:32;99995.66;;;20.69;69.54
17311;BME280;8773;43.300;0.394;2023-07-02T05:17:59;99986.66;;;20.75;69.48
17311;BME280;8773;43.300;0.394;2023-07-02T05:20:28;99991.00;;;20.83;69.31
17311;BME280;8773;43.300;0.394;2023-07-02T05:22:55;99992.06;;;20.88;69.11
17311;BME280;8773;43.300;0.394;2023-07-02T05:25:23;99993.53;;;20.78;69.21
17311;BME280;8773;43.300;0.394;2023-07-02T05:27:50;99994.59;;;20.70;69.80
17311;BME280;8773;43.300;0.394;2023-07-02T05:30:18;99994.13;;;20.86;69.39
17311;BME280;8773;43.300;0.394;2023-07-02T05:32:45;99990.13;;;20.95;69.03
17311;BME280;8773;43.300;0.394;2023-07-02T05:35:13;99994.25;;;21.05;68.43
17311;BME280;8773;43.300;0.394;2023-07-02T05:37:42;100001.13;;;21.07;68.66
17311;BME280;8773;43.300;0.394;2023-07-02T05:40:10;100004.00;;;21.12;68.40
17311;BME280;8773;43.300;0.394;2023-07-02T05:42:41;100000.22;;;21.20;68.13
17311;BME280;8773;43.300;0.394;2023-07-02T05:45:09;99998.50;;;21.25;68.10
17311;BME280;8773;43.300;0.394;2023-07-02T05:47:36;100001.78;;;21.34;67.69
17311;BME280;8773;43.300;0.394;2023-07-02T05:50:05;100010.28;;;21.44;67.53
17311;BME280;8773;43.300;0.394;2023-07-02T05:52:33;100005.78;;;21.56;67.22
17311;BME280;8773;43.300;0.394;2023-07-02T05:55:02;100010.47;;;21.49;66.68
17311;BME280;8773;43.300;0.394;2023-07-02T05:57:29;100007.91;;;21.54;67.03
17311;BME280;8773;43.300;0.394;2023-07-02T05:59:57;100013.72;;;21.64;67.13
17311;BME280;8773;43.300;0.394;2023-07-02T06:02:24;100016.59;;;21.70;66.94
17311;BME280;8773;43.300;0.394;2023-07-02T06:04:52;100012.81;;;21.71;66.62
17311;BME280;8773;43.300;0.394;2023-07-02T06:07:19;100025.38;;;21.72;66.62
17311;BME280;8773;43.300;0.394;2023-07-02T06:09:47;100024.69;;;21.76;66.61
17311;BME280;8773;43.300;0.394;2023-07-02T06:12:15;100016.88;;;21.55;66.64
17311;BME280;8773;43.300;0.394;2023-07-02T06:14:43;100022.69;;;21.65;66.79
17311;BME280;8773;43.300;0.394;2023-07-02T06:17:11;100015.16;;;21.67;66.83
17311;BME280;8773;43.300;0.394;2023-07-02T06:19:38;100017.81;;;21.74;66.66
17311;BME280;8773;43.300;0.394;2023-07-02T06:22:05;100026.38;;;21.77;66.69
17311;BME280;8773;43.300;0.394;2023-07-02T06:24:33;100024.91;;;21.75;66.57
17311;BME280;8773;43.300;0.394;2023-07-02T06:27:00;100017.81;;;21.74;66.30
17311;BME280;8773;43.300;0.394;2023-07-02T06:29:29;100020.88;;;21.52;66.96
17311;BME280;8773;43.300;0.394;2023-07-02T06:31:56;100016.78;;;21.43;67.35
17311;BME280;8773;43.300;0.394;2023-07-02T06:34:24;100016.97;;;21.48;67.02
17311;BME280;8773;43.300;0.394;2023-07-02T06:36:51;100014.56;;;21.58;67.19
17311;BME280;8773;43.300;0.394;2023-07-02T06:39:19;100011.22;;;21.63;67.10
17311;BME280;8773;43.300;0.394;2023-07-02T06:41:46;100017.38;;;21.77;66.98
17311;BME280;8773;43.300;0.394;2023-07-02T06:44:13;100012.69;;;22.09;66.27
17311;BME280;8773;43.300;0.394;2023-07-02T06:46:45;100019.31;;;22.38;65.39
17311;BME280;8773;43.300;0.394;2023-07-02T06:49:13;100017.34;;;22.45;65.10
17311;BME280;8773;43.300;0.394;2023-07-02T06:51:40;100026.72;;;22.67;64.30
17311;BME280;8773;43.300;0.394;2023-07-02T06:54:07;100022.63;;;22.76;63.94
17311;BME280;8773;43.300;0.394;2023-07-02T06:56:35;100024.47;;;22.64;64.08
17311;BME280;8773;43.300;0.394;2023-07-02T06:59:03;100019.91;;;22.76;63.32
17311;BME280;8773;43.300;0.394;2023-07-02T07:01:30;100034.59;;;22.75;63.81
17311;BME280;8773;43.300;0.394;2023-07-02T07:03:59;100031.19;;;22.61;64.01
17311;BME280;8773;43.300;0.394;2023-07-02T07:06:27;100025.19;;;22.35;64.10
17311;BME280;8773;43.300;0.394;2023-07-02T07:08:54;100033.66;;;22.26;64.26
17311;BME280;8773;43.300;0.394;2023-07-02T07:11:22;100030.06;;;22.08;64.75
17311;BME280;8773;43.300;0.394;2023-07-02T07:13:49;100033.88;;;22.00;65.53
17311;BME280;8773;43.300;0.394;2023-07-02T07:16:17;100030.25;;;21.88;65.37
17311;BME280;8773;43.300;0.394;2023-07-02T07:18:45;100024.81;;;21.88;66.07
17311;BME280;8773;43.300;0.394;2023-07-02T07:21:13;100033.16;;;22.11;65.63
17311;BME280;8773;43.300;0.394;2023-07-02T07:23:41;100028.00;;;22.64;64.27
17311;BME280;8773;43.300;0.394;2023-07-02T07:26:08;100025.22;;;22.71;63.55
17311;BME280;8773;43.300;0.394;2023-07-02T07:28:36;100029.56;;;23.09;62.97
17311;BME280;8773;43.300;0.394;2023-07-02T07:31:03;100023.66;;;23.53;61.94
17311;BME280;8773;43.300;0.394;2023-07-02T07:33:31;100010.00;;;23.95;60.79
17311;BME280;8773;43.300;0.394;2023-07-02T07:35:58;100008.44;;;23.87;59.55
17311;BME280;8773;43.300;0.394;2023-07-02T07:38:27;100015.91;;;23.80;60.56
17311;BME280;8773;43.300;0.394;2023-07-02T07:40:55;100013.19;;;23.92;60.72
17311;BME280;8773;43.300;0.394;2023-07-02T07:43:22;100017.75;;;23.68;60.50
17311;BME280;8773;43.300;0.394;2023-07-02T07:45:50;100018.03;;;23.37;61.46
17311;BME280;8773;43.300;0.394;2023-07-02T07:48:17;100007.84;;;22.84;63.26
17311;BME280;8773;43.300;0.394;2023-07-02T07:50:44;100018.00;;;23.25;62.28
17311;BME280;8773;43.300;0.394;2023-07-02T07:53:12;100016.25;;;23.30;62.18
17311;BME280;8773;43.300;0.394;2023-07-02T07:55:41;100019.00;;;23.95;60.67
17311;BME280;8773;43.300;0.394;2023-07-02T07:58:08;100020.31;;;23.93;60.20
17311;BME280;8773;43.300;0.394;2023-07-02T08:00:36;100029.78;;;23.37;61.22
17311;BME280;8773;43.300;0.394;2023-07-02T08:03:03;100030.69;;;23.31;61.86
17311;BME280;8773;43.300;0.394;2023-07-02T08:05:31;100031.84;;;23.12;62.65
17311;BME280;8773;43.300;0.394;2023-07-02T08:07:58;100038.56;;;23.09;63.31
17311;BME280;8773;43.300;0.394;2023-07-02T08:10:25;100038.03;;;23.01;63.67
17311;BME280;8773;43.300;0.394;2023-07-02T08:12:54;100045.03;;;22.78;64.62
17311;BME280;8773;43.300;0.394;2023-07-02T08:15:22;100037.50;;;22.92;63.53
17311;BME280;8773;43.300;0.394;2023-07-02T08:17:49;100037.56;;;23.04;63.75
17311;BME280;8773;43.300;0.394;2023-07-02T08:20:17;100040.28;;;23.63;62.98
17311;BME280;8773;43.300;0.394;2023-07-02T08:22:44;100039.28;;;23.88;61.84
17311;BME280;8773;43.300;0.394;2023-07-02T08:25:12;100033.25;;;24.09;60.28
17311;BME280;8773;43.300;0.394;2023-07-02T08:27:39;100024.19;;;24.32;59.89
17311;BME280;8773;43.300;0.394;2023-07-02T08:30:09;100028.94;;;24.13;60.31
17311;BME280;8773;43.300;0.394;2023-07-02T08:32:37;100021.94;;;23.82;60.67
17311;BME280;8773;43.300;0.394;2023-07-02T08:35:04;100030.19;;;23.52;61.75
17311;BME280;8773;43.300;0.394;2023-07-02T08:37:32;100029.53;;;23.39;61.91
17311;BME280;8773;43.300;0.394;2023-07-02T08:39:59;100033.84;;;23.46;61.98
17311;BME280;8773;43.300;0.394;2023-07-02T08:42:27;100042.25;;;23.15;63.46
17311;BME280;8773;43.300;0.394;2023-07-02T08:44:55;100040.91;;;23.06;64.73
17311;BME280;8773;43.300;0.394;2023-07-02T08:47:25;100035.78;;;23.27;65.38
17311;BME280;8773;43.300;0.394;2023-07-02T08:49:53;100039.44;;;23.03;66.37
17311;BME280;8773;43.300;0.394;2023-07-02T08:52:20;100033.41;;;23.31;65.71
17311;BME280;8773;43.300;0.394;2023-07-02T08:54:48;100034.22;;;23.61;64.78
17311;BME280;8773;43.300;0.394;2023-07-02T08:57:24;100017.34;;;23.94;64.06
17311;BME280;8773;43.300;0.394;2023-07-02T08:59:52;100023.84;;;23.82;63.54
17311;BME280;8773;43.300;0.394;2023-07-02T09:02:31;100028.00;;;24.19;62.68
17311;BME280;8773;43.300;0.394;2023-07-02T09:04:59;100033.94;;;24.28;61.95
17311;BME280;8773;43.300;0.394;2023-07-02T09:07:27;100028.38;;;24.00;62.80
17311;BME280;8773;43.300;0.394;2023-07-02T09:09:55;100034.66;;;24.00;62.73
17311;BME280;8773;43.300;0.394;2023-07-02T09:12:23;100033.22;;;24.33;62.25
17311;BME280;8773;43.300;0.394;2023-07-02T09:14:57;100036.53;;;24.23;62.53
17311;BME280;8773;43.300;0.394;2023-07-02T09:17:29;100032.41;;;24.09;62.66
17311;BME280;8773;43.300;0.394;2023-07-02T09:19:59;100024.94;;;24.04;61.84
17311;BME280;8773;43.300;0.394;2023-07-02T09:22:27;100023.63;;;24.18;61.21
17311;BME280;8773;43.300;0.394;2023-07-02T09:24:56;100024.91;;;24.27;59.47
17311;BME280;8773;43.300;0.394;2023-07-02T09:27:33;100024.88;;;24.63;59.19
17311;BME280;8773;43.300;0.394;2023-07-02T09:30:06;100016.56;;;24.69;58.77
17311;BME280;8773;43.300;0.394;2023-07-02T09:32:34;100010.34;;;24.45;59.16
17311;BME280;8773;43.300;0.394;2023-07-02T09:35:04;100021.13;;;24.52;60.32
17311;BME280;8773;43.300;0.394;2023-07-02T09:37:31;100013.09;;;24.85;59.09
17311;BME280;8773;43.300;0.394;2023-07-02T09:40:00;100017.88;;;25.35;58.94
17311;BME280;8773;43.300;0.394;2023-07-02T09:42:28;100020.13;;;25.55;56.67
17311;BME280;8773;43.300;0.394;2023-07-02T09:44:57;100014.47;;;25.45;57.80
17311;BME280;8773;43.300;0.394;2023-07-02T09:47:26;100020.13;;;25.38;58.41
17311;BME280;8773;43.300;0.394;2023-07-02T09:49:54;100022.28;;;24.96;58.43
17311;BME280;8773;43.300;0.394;2023-07-02T09:52:24;100022.03;;;24.69;59.53
17311;BME280;8773;43.300;0.394;2023-07-02T09:54:52;100027.50;;;24.69;59.40
17311;BME280;8773;43.300;0.394;2023-07-02T09:57:20;100033.66;;;24.76;59.85
17311;BME280;8773;43.300;0.394;2023-07-02T09:59:47;100036.06;;;24.38;62.37
17311;BME280;8773;43.300;0.394;2023-07-02T10:02:15;100032.75;;;24.12;63.88
17311;BME280;8773;43.300;0.394;2023-07-02T10:04:44;100033.81;;;24.23;64.58
17311;BME280;8773;43.300;0.394;2023-07-02T10:07:13;100030.59;;;24.61;64.84
17311;BME280;8773;43.300;0.394;2023-07-02T10:09:54;100028.44;;;24.75;63.12
17311;BME280;8773;43.300;0.394;2023-07-02T10:12:22;100039.50;;;24.97;63.45
17311;BME280;8773;43.300;0.394;2023-07-02T10:14:52;100037.91;;;24.84;63.46
17311;BME280;8773;43.300;0.394;2023-07-02T10:17:24;100040.81;;;25.06;63.92
17311;BME280;8773;43.300;0.394;2023-07-02T10:19:53;100039.59;;;25.13;64.07
17311;BME280;8773;43.300;0.394;2023-07-02T10:22:22;100042.28;;;25.25;63.16
17311;BME280;8773;43.300;0.394;2023-07-02T10:24:55;100039.31;;;25.43;61.60
17311;BME280;8773;43.300;0.394;2023-07-02T10:27:33;100030.47;;;25.53;61.18
17311;BME280;8773;43.300;0.394;2023-07-02T10:30:01;100044.72;;;25.38;59.67
17311;BME280;8773;43.300;0.394;2023-07-02T10:32:29;100037.47;;;25.60;60.69
17311;BME280;8773;43.300;0.394;2023-07-02T10:34:57;100036.13;;;25.63;60.41
17311;BME280;8773;43.300;0.394;2023-07-02T10:37:24;100032.59;;;25.96;59.62
17311;BME280;8773;43.300;0.394;2023-07-02T10:39:54;100020.31;;;25.65;60.12
17311;BME280;8773;43.300;0.394;2023-07-02T10:42:21;100032.22;;;25.59;58.66
17311;BME280;8773;43.300;0.394;2023-07-02T10:44:50;100032.22;;;24.74;63.34
17311;BME280;8773;43.300;0.394;2023-07-02T10:47:18;100033.56;;;25.00;63.01
17311;BME280;8773;43.300;0.394;2023-07-02T10:49:46;100030.00;;;24.99;61.37
17311;BME280;8773;43.300;0.394;2023-07-02T10:52:13;100034.50;;;25.05;61.58
17311;BME280;8773;43.300;0.394;2023-07-02T10:54:41;100028.41;;;24.86;61.82
17311;BME280;8773;43.300;0.394;2023-07-02T10:57:14;100028.56;;;24.68;61.35
17311;BME280;8773;43.300;0.394;2023-07-02T10:59:41;100030.91;;;24.76;60.96
17311;BME280;8773;43.300;0.394;2023-07-02T11:02:09;100026.28;;;24.77;62.11
17311;BME280;8773;43.300;0.394;2023-07-02T11:04:37;100026.88;;;24.79;60.03
17311;BME280;8773;43.300;0.394;2023-07-02T11:07:05;100015.31;;;25.45;58.81
17311;BME280;8773;43.300;0.394;2023-07-02T11:09:32;100022.09;;;25.43;58.10
17311;BME280;8773;43.300;0.394;2023-07-02T11:12:00;100017.13;;;25.40;58.24
17311;BME280;8773;43.300;0.394;2023-07-02T11:14:31;100024.19;;;25.07;58.33
17311;BME280;8773;43.300;0.394;2023-07-02T11:17:00;100023.34;;;25.35;57.99
17311;BME280;8773;43.300;0.394;2023-07-02T11:19:27;100022.19;;;25.31;58.54
17311;BME280;8773;43.300;0.394;2023-07-02T11:21:56;100020.97;;;25.55;57.89
17311;BME280;8773;43.300;0.394;2023-07-02T11:24:28;100019.88;;;25.56;57.28
17311;BME280;8773;43.300;0.394;2023-07-02T11:26:56;100023.41;;;25.40;57.53
17311;BME280;8773;43.300;0.394;2023-07-02T11:29:23;100009.88;;;25.17;56.69
17311;BME280;8773;43.300;0.394;2023-07-02T11:31:52;100031.06;;;25.10;57.76
17311;BME280;8773;43.300;0.394;2023-07-02T11:34:20;100023.41;;;25.23;58.10
17311;BME280;8773;43.300;0.394;2023-07-02T11:36:51;100021.34;;;24.27;61.35
17311;BME280;8773;43.300;0.394;2023-07-02T11:39:19;100036.28;;;23.78;63.27
17311;BME280;8773;43.300;0.394;2023-07-02T11:41:47;100034.16;;;24.15;62.83
17311;BME280;8773;43.300;0.394;2023-07-02T11:44:15;100030.50;;;24.21;61.53
17311;BME280;8773;43.300;0.394;2023-07-02T11:46:43;100035.34;;;24.19;61.68
17311;BME280;8773;43.300;0.394;2023-07-02T11:49:12;100028.09;;;24.59;60.92
17311;BME280;8773;43.300;0.394;2023-07-02T11:51:40;100025.94;;;25.02;59.13
17311;BME280;8773;43.300;0.394;2023-07-02T11:54:10;100031.81;;;25.50;56.45
17311;BME280;8773;43.300;0.394;2023-07-02T11:56:38;100034.94;;;25.71;56.08
17311;BME280;8773;43.300;0.394;2023-07-02T11:59:05;100037.78;;;25.64;55.46
17311;BME280;8773;43.300;0.394;2023-07-02T12:01:33;100034.53;;;25.50;56.31
17311;BME280;8773;43.300;0.394;2023-07-02T12:04:00;100031.28;;;25.82;54.81
17311;BME280;8773;43.300;0.394;2023-07-02T12:06:29;100039.25;;;25.55;55.01
17311;BME280;8773;43.300;0.394;2023-07-02T12:08:57;100048.81;;;24.96;56.90
17311;BME280;8773;43.300;0.394;2023-07-02T12:11:24;100047.91;;;25.18;58.32
17311;BME280;8773;43.300;0.394;2023-07-02T12:13:52;100051.66;;;25.29;58.21
17311;BME280;8773;43.300;0.394;2023-07-02T12:16:19;100051.88;;;25.56;57.95
17311;BME280;8773;43.300;0.394;2023-07-02T12:18:46;100053.09;;;25.48;59.40
17311;BME280;8773;43.300;0.394;2023-07-02T12:21:14;100061.44;;;25.87;59.20
17311;BME280;8773;43.300;0.394;2023-07-02T12:23:43;100057.88;;;26.03;57.25
17311;BME280;8773;43.300;0.394;2023-07-02T12:26:10;100049.19;;;26.06;57.44
17311;BME280;8773;43.300;0.394;2023-07-02T12:28:38;100054.13;;;26.43;54.71
17311;BME280;8773;43.300;0.394;2023-07-02T12:31:05;100043.53;;;26.68;53.08
17311;BME280;8773;43.300;0.394;2023-07-02T12:33:33;100044.34;;;27.12;52.87
17311;BME280;8773;43.300;0.394;2023-07-02T12:36:00;100042.97;;;27.64;50.79
17311;BME280;8773;43.300;0.394;2023-07-02T12:38:27;100034.66;;;27.85;50.51
17311;BME280;8773;43.300;0.394;2023-07-02T12:40:56;100029.34;;;28.11;49.13
17311;BME280;8773;43.300;0.394;2023-07-02T12:43:24;100025.03;;;28.20;48.08
17311;BME280;8773;43.300;0.394;2023-07-02T12:45:51;100026.47;;;28.28;47.42
17311;BME280;8773;43.300;0.394;2023-07-02T12:48:19;100039.69;;;27.99;48.97
17311;BME280;8773;43.300;0.394;2023-07-02T12:50:55;100037.50;;;28.38;47.75
17311;BME280;8773;43.300;0.394;2023-07-02T12:53:24;100025.88;;;28.68;48.24
17311;BME280;8773;43.300;0.394;2023-07-02T12:55:53;100020.97;;;28.75;45.52
17311;BME280;8773;43.300;0.394;2023-07-02T12:58:22;100020.81;;;28.54;45.67
17311;BME280;8773;43.300;0.394;2023-07-02T13:00:49;100014.13;;;28.82;46.44
17311;BME280;8773;43.300;0.394;2023-07-02T13:03:17;100014.22;;;29.18;46.07
17311;BME280;8773;43.300;0.394;2023-07-02T13:05:47;100019.50;;;28.62;45.88
17311;BME280;8773;43.300;0.394;2023-07-02T13:08:16;100028.97;;;27.97;48.32